Terminal Aerodrome Forecast
Issued by NWS

Home | Current Version | Previous Version | Text Only | Print | Product List | Glossary Off
Versions: 1 2 3 4 5 6 7 8 9 10 11 12 13 14 15 16 17 18 19 20 21 22 23 24 25 26 27 28 29 30 31 32

879
FTUS43 KGRB 281720
TAFATW
TAF
KATW 281720Z 2818/2918 28005KT P6SM BKN017
     FM281900 26006KT P6SM BKN150
     FM282100 25008KT P6SM VCSH SCT050 BKN110
     FM290200 26006KT P6SM SCT200
     FM291300 26011G20KT P6SM BKN060=

USA.gov is the U.S. government's official web portal to all federal, state and local government web resources and services.